الصفحة الرئيسية
METAR-TAF:

METAR-TAF

مطار :

Shimoji-shima, اليابان

دائرة عرض: 24-50N, خط طول: 125-09E, ارتفاع: 16 متر

مراقبة الطقس الحالي

تاريخ ووقت الإصدار 18 دقيقة قبل الساعة 00:00UTC
ريح 3 عقدة من الجنوب الغربي, الاتجاه يتراوح بين الجنوب و الغرب
درجة الحرارة 28°درجة مئوية
الرطوبة 100%
ضغط 1009 hPa
الرؤية: 9000 متر
غيوم قليلة على ارتفاع 7000 قدم
غيوم مفككة على ارتفاع 8000 قدم
غيوم مفككة على ارتفاع 9000 قدم
مطر خفيف,

METAR: RORS 180000Z AUTO 23003KT 180V270 9000 -RA FEW070 BKN080 BKN090 //////TCU 28/28 Q1009

زمن: 09:18 (00:18 UTC)


TAF: مفقودة

أرصاد الطقس والتوقعات من أكثر من 4000 مطار (تقارير الطقس للمطار METAR والتنبؤ بالطقس بالمطارTAF).

المحطات المتاحة هي النقط الصفراء والحمراء على الخريطة.

حرك المؤشر فوق النقطة لمعرفة اسم المحطة.

ثم انقر لمعرفة أرصاد وتوقعات الطقس.

لتغيير الخارطة: اضغط على الأزرار الخضراء مع رمز الصليب الأسود للتكبير. على الزر الأخضر مع شرطة للتصغير، أو على الأسهم الخضراء للخرائط المجاورة.


METAR-TAF: